Time;durP1;ratioP1;P1;durP2;ratioP2;P2;SDS_P1;SDS_P2;PMS_P1;PMS_P2;Temp;Humidity;BMP_temperature;BMP_pressure;BME280_temperature;BME280_humidity;BME280_pressure;Samples;Min_cycle;Max_cycle;Signal;HPM_P1;HPM_P2
2023/07/22 00:00:37;;;;;;;;;;;;;;;-140.72;100.00;52577.53;5096800;28;20338;-70
2023/07/22 00:03:02;;;;;;;;;;;;;;;-140.72;100.00;52603.94;5099089;28;19920;-70
2023/07/22 00:05:28;;;;;;;;;;;;;;;-140.72;100.00;52610.00;5094689;28;19927;-70
2023/07/22 00:07:53;;;;;;;;;;;;;;;-140.72;100.00;52614.06;5095375;28;19920;-70
2023/07/22 00:10:18;;;;;;;;;;;;;;;-140.72;100.00;52640.44;5098368;28;19928;-71
2023/07/22 00:12:44;;;;;;;;;;;;;;;-140.72;100.00;52591.75;5098804;28;19965;-71
2023/07/22 00:15:11;;;;;;;;;;;;;;;-140.72;100.00;52630.31;5097552;28;19924;-70
2023/07/22 00:17:37;;;;;;;;;;;;;;;-140.72;100.00;52618.13;5074532;28;20349;-71
2023/07/22 00:20:04;;;;;;;;;;;;;;;-140.72;100.00;52636.38;5096714;28;20021;-70
2023/07/22 00:22:29;;;;;;;;;;;;;;;-140.72;100.00;52616.09;5101421;28;19928;-71
2023/07/22 00:24:54;;;;;;;;;;;;;;;-140.72;100.00;52607.97;5094810;28;19927;-71
2023/07/22 00:27:20;;;;;;;;;;;;;;;-140.72;100.00;52632.34;5098529;28;20023;-71
2023/07/22 00:29:45;;;;;;;;;;;;;;;-140.72;100.00;52597.84;5093808;28;19919;-70
2023/07/22 00:32:10;;;;;;;;;;;;;;;-140.72;100.00;52628.28;5100724;28;19939;-70
2023/07/22 00:34:36;;;;;;;;;;;;;;;-140.72;100.00;52672.91;5095230;28;19920;-70
2023/07/22 00:37:02;;;;;;;;;;;;;;;-140.72;100.00;52646.53;5104043;28;20014;-71
2023/07/22 00:39:27;;;;;;;;;;;;;;;-140.72;100.00;52650.59;5093193;28;20429;-71
2023/07/22 00:41:52;;;;;;;;;;;;;;;-140.72;100.00;52624.22;5095130;28;20354;-71
2023/07/22 00:44:18;;;;;;;;;;;;;;;-140.72;100.00;52638.41;5076830;28;19920;-71
2023/07/22 00:46:43;;;;;;;;;;;;;;;-140.72;100.00;52614.06;5097693;28;19955;-71
2023/07/22 00:49:09;;;;;;;;;;;;;;;-140.72;100.00;52638.41;5093683;28;20059;-71
2023/07/22 00:51:34;;;;;;;;;;;;;;;-140.72;100.00;52646.53;5096115;28;19920;-71
2023/07/22 00:53:59;;;;;;;;;;;;;;;-140.72;100.00;52618.13;5074956;28;19988;-71
2023/07/22 00:56:25;;;;;;;;;;;;;;;-140.72;100.00;52601.91;5086112;28;19924;-70
2023/07/22 00:58:50;;;;;;;;;;;;;;;-140.72;100.00;52634.38;5099283;28;19966;-70
2023/07/22 01:01:16;;;;;;;;;;;;;;;-140.72;100.00;52668.84;5104793;28;19930;-71
2023/07/22 01:03:42;;;;;;;;;;;;;;;-140.72;100.00;52601.91;5079958;28;19928;-71
2023/07/22 01:06:07;;;;;;;;;;;;;;;-140.72;100.00;52638.41;5097326;28;19932;-71
2023/07/22 01:08:32;;;;;;;;;;;;;;;-140.72;100.00;52636.38;5100082;28;20301;-70
2023/07/22 01:10:59;;;;;;;;;;;;;;;-140.72;100.00;52662.78;5100329;28;20396;-71
2023/07/22 01:13:24;;;;;;;;;;;;;;;-140.72;100.00;52628.28;5095294;28;20287;-71
2023/07/22 01:15:49;;;;;;;;;;;;;;;-140.72;100.00;52658.72;5090029;28;19924;-71
2023/07/22 01:18:15;;;;;;;;;;;;;;;-140.72;100.00;52638.41;5100655;28;20461;-71
2023/07/22 01:20:41;;;;;;;;;;;;;;;-140.72;100.00;52630.31;5099919;28;19931;-71
2023/07/22 01:23:07;;;;;;;;;;;;;;;-140.72;100.00;52687.13;5101447;28;19920;-71
2023/07/22 01:25:32;;;;;;;;;;;;;;;-140.72;100.00;52654.66;5093308;28;19923;-71
2023/07/22 01:27:57;;;;;;;;;;;;;;;-140.72;100.00;52642.47;5098524;28;20015;-71
2023/07/22 01:30:22;;;;;;;;;;;;;;;-140.72;100.00;52654.66;5097906;28;20018;-71
2023/07/22 01:32:50;;;;;;;;;;;;;;;-140.72;100.00;52622.19;5086217;28;20316;-70
2023/07/22 01:35:15;;;;;;;;;;;;;;;-140.72;100.00;52632.34;5096705;28;19955;-70
2023/07/22 01:37:40;;;;;;;;;;;;;;;-140.72;100.00;52638.41;5096394;28;20073;-70
2023/07/22 01:40:11;;;;;;;;;;;;;;;-140.72;100.00;52670.88;5104525;28;19927;-71
2023/07/22 01:42:37;;;;;;;;;;;;;;;-140.72;100.00;52683.06;5078068;28;19928;-71
2023/07/22 01:45:03;;;;;;;;;;;;;;;-140.72;100.00;52656.69;5098629;28;19920;-71
2023/07/22 01:47:28;;;;;;;;;;;;;;;-140.72;100.00;52630.31;5086493;28;20012;-70
2023/07/22 01:49:53;;;;;;;;;;;;;;;-140.72;100.00;52614.06;5105357;28;19920;-71
2023/07/22 01:52:19;;;;;;;;;;;;;;;-140.72;100.00;52654.66;5075315;28;20313;-71
2023/07/22 01:54:44;;;;;;;;;;;;;;;-140.72;100.00;52644.50;5092903;28;19924;-71
2023/07/22 01:57:09;;;;;;;;;;;;;;;-140.72;100.00;52636.38;5095519;28;20416;-71
2023/07/22 01:59:34;;;;;;;;;;;;;;;-140.72;100.00;52634.38;5097392;28;19943;-71
2023/07/22 02:01:59;;;;;;;;;;;;;;;-140.72;100.00;52630.31;5093297;28;19920;-71
2023/07/22 02:04:25;;;;;;;;;;;;;;;-140.72;100.00;52638.41;5081532;28;20002;-70
2023/07/22 02:06:50;;;;;;;;;;;;;;;-140.72;100.00;52626.25;5099189;28;19972;-71
2023/07/22 02:09:15;;;;;;;;;;;;;;;-140.72;100.00;52634.38;5095742;28;19969;-71
2023/07/22 02:11:40;;;;;;;;;;;;;;;-140.72;100.00;52624.22;5092481;28;19921;-71
2023/07/22 02:14:09;;;;;;;;;;;;;;;-140.72;100.00;52658.72;5096250;28;20026;-71
2023/07/22 02:16:35;;;;;;;;;;;;;;;-140.72;100.00;52650.59;5100001;28;20372;-71
2023/07/22 02:19:00;;;;;;;;;;;;;;;-140.72;100.00;52666.84;5099747;28;19924;-71
2023/07/22 02:21:25;;;;;;;;;;;;;;;-140.72;100.00;52614.06;5090075;28;19976;-71
2023/07/22 02:23:50;;;;;;;;;;;;;;;-140.72;100.00;52646.53;5098376;28;20380;-72
2023/07/22 02:26:15;;;;;;;;;;;;;;;-140.72;100.00;52670.88;5098846;28;20380;-72
2023/07/22 02:28:41;;;;;;;;;;;;;;;-140.72;100.00;52624.22;5093741;28;19921;-71
2023/07/22 02:31:07;;;;;;;;;;;;;;;-140.72;100.00;52612.03;5079371;28;19925;-72
2023/07/22 02:33:34;;;;;;;;;;;;;;;-140.72;100.00;52679.00;5072743;28;19920;-72
2023/07/22 02:35:59;;;;;;;;;;;;;;;-140.72;100.00;52670.88;5086825;28;19951;-71
2023/07/22 02:38:25;;;;;;;;;;;;;;;-140.72;100.00;52672.91;5088872;28;19920;-71
2023/07/22 02:41:03;;;;;;;;;;;;;;;-140.72;100.00;52626.25;5085282;28;20360;-71
2023/07/22 02:43:28;;;;;;;;;;;;;;;-140.72;100.00;52640.44;5069475;28;19920;-71
2023/07/22 02:45:55;;;;;;;;;;;;;;;-140.72;100.00;52642.47;5088054;28;20011;-71
2023/07/22 02:48:20;;;;;;;;;;;;;;;-140.72;100.00;52697.28;5094606;28;19931;-71
2023/07/22 02:50:45;;;;;;;;;;;;;;;-140.72;100.00;52624.22;5086919;28;19985;-71
2023/07/22 02:53:11;;;;;;;;;;;;;;;-140.72;100.00;52646.53;5085673;28;19989;-71
2023/07/22 02:55:36;;;;;;;;;;;;;;;-140.72;100.00;52636.38;5087270;28;19916;-71
2023/07/22 02:58:01;;;;;;;;;;;;;;;-140.72;100.00;52646.53;5085070;28;19924;-71
2023/07/22 03:00:38;;;;;;;;;;;;;;;-140.72;100.00;52634.38;5091992;28;19920;-72
2023/07/22 03:03:04;;;;;;;;;;;;;;;-140.72;100.00;52679.00;5088378;28;19927;-72
2023/07/22 03:05:30;;;;;;;;;;;;;;;-140.72;100.00;52646.53;5085616;28;20020;-72
2023/07/22 03:07:56;;;;;;;;;;;;;;;-140.72;100.00;52668.84;5068644;28;19936;-71
2023/07/22 03:10:21;;;;;;;;;;;;;;;-140.72;100.00;52691.19;5080286;28;19924;-71
2023/07/22 03:12:47;;;;;;;;;;;;;;;-140.72;100.00;52666.84;5088812;28;20479;-71
2023/07/22 03:15:12;;;;;;;;;;;;;;;-140.72;100.00;52670.88;5097062;28;20299;-71
2023/07/22 03:17:38;;;;;;;;;;;;;;;-140.72;100.00;52658.72;5087813;28;20007;-71
2023/07/22 03:20:18;;;;;;;;;;;;;;;-140.72;100.00;52660.75;5077154;28;19970;-71
2023/07/22 03:22:43;;;;;;;;;;;;;;;-140.72;100.00;52666.84;5083477;28;19921;-71
2023/07/22 03:25:10;;;;;;;;;;;;;;;-140.72;100.00;52715.53;5087664;28;19928;-72
2023/07/22 03:27:35;;;;;;;;;;;;;;;-140.72;100.00;52666.84;5085840;28;19920;-71
2023/07/22 03:30:01;;;;;;;;;;;;;;;-140.72;100.00;52644.50;5087845;28;20367;-71
2023/07/22 03:32:27;;;;;;;;;;;;;;;-140.72;100.00;52695.25;5086416;28;20353;-71
2023/07/22 03:34:52;;;;;;;;;;;;;;;-140.72;100.00;52707.41;5092299;28;19967;-71
2023/07/22 03:37:17;;;;;;;;;;;;;;;-140.72;100.00;52695.25;5093801;28;19920;-71
2023/07/22 03:39:43;;;;;;;;;;;;;;;-140.72;100.00;52662.78;5097434;28;19920;-71
2023/07/22 03:42:08;;;;;;;;;;;;;;;-140.72;100.00;52664.81;5091012;28;19974;-71
2023/07/22 03:44:33;;;;;;;;;;;;;;;-140.72;100.00;52691.19;5095284;28;19927;-71
2023/07/22 03:46:59;;;;;;;;;;;;;;;-140.72;100.00;52691.19;5087581;28;19977;-71
2023/07/22 03:49:25;;;;;;;;;;;;;;;-140.72;100.00;52642.47;5087910;28;19920;-71
2023/07/22 03:51:50;;;;;;;;;;;;;;;-140.72;100.00;52636.38;5095590;28;19966;-71
2023/07/22 03:54:15;;;;;;;;;;;;;;;-140.72;100.00;52662.78;5089425;28;19924;-72
2023/07/22 03:56:41;;;;;;;;;;;;;;;-140.72;100.00;52634.38;5091262;28;20361;-75
2023/07/22 03:59:06;;;;;;;;;;;;;;;-140.72;100.00;52626.25;5096274;28;20335;-71
2023/07/22 04:01:38;;;;;;;;;;;;;;;-140.72;100.00;52666.84;5090280;28;19961;-71
2023/07/22 04:04:03;;;;;;;;;;;;;;;-140.72;100.00;52652.63;5090418;28;19939;-71
2023/07/22 04:06:29;;;;;;;;;;;;;;;-140.72;100.00;52670.88;5093891;28;19923;-71
2023/07/22 04:08:54;;;;;;;;;;;;;;;-140.72;100.00;52670.88;5088180;28;19932;-71
2023/07/22 04:11:19;;;;;;;;;;;;;;;-140.72;100.00;52666.84;5092185;28;20396;-71
2023/07/22 04:13:44;;;;;;;;;;;;;;;-140.72;100.00;52638.41;5087741;28;19943;-71
2023/07/22 04:16:09;;;;;;;;;;;;;;;-140.72;100.00;52662.78;5090637;28;19955;-71
2023/07/22 04:18:35;;;;;;;;;;;;;;;-140.72;100.00;52614.06;5093299;28;19927;-71
2023/07/22 04:21:00;;;;;;;;;;;;;;;-140.72;100.00;52664.81;5096243;28;19981;-71
2023/07/22 04:23:26;;;;;;;;;;;;;;;-140.72;100.00;52654.66;5091002;28;20302;-73
2023/07/22 04:26:09;;;;;;;;;;;;;;;-140.72;100.00;52666.84;5090374;28;19966;-72
2023/07/22 04:28:35;;;;;;;;;;;;;;;-140.72;100.00;52603.94;5080085;28;20009;-74
2023/07/22 04:31:01;;;;;;;;;;;;;;;-140.72;100.00;52652.63;5098419;28;20015;-72
2023/07/22 04:33:27;;;;;;;;;;;;;;;-140.72;100.00;52660.75;5094969;28;20041;-72
2023/07/22 04:35:54;;;;;;;;;;;;;;;-140.72;100.00;52616.09;5077054;28;20392;-73
2023/07/22 04:38:19;;;;;;;;;;;;;;;-140.72;100.00;52638.41;5092788;28;19920;-72
2023/07/22 04:40:45;;;;;;;;;;;;;;;-140.72;100.00;52624.22;5085569;28;20032;-72
2023/07/22 04:43:12;;;;;;;;;;;;;;;-140.72;100.00;52644.50;5090887;28;19931;-75
2023/07/22 04:45:40;;;;;;;;;;;;;;;-140.72;100.00;52632.34;5085150;28;19916;-72
2023/07/22 04:48:05;;;;;;;;;;;;;;;-140.72;100.00;52650.59;5086145;28;19990;-72
2023/07/22 04:50:30;;;;;;;;;;;;;;;-140.72;100.00;52646.53;5060729;28;20377;-72
2023/07/22 04:52:56;;;;;;;;;;;;;;;-140.72;100.00;52658.72;5076275;28;19952;-71
2023/07/22 04:55:49;;;;;;;;;;;;;;;-140.72;100.00;52687.13;5074802;28;20016;-72
2023/07/22 04:58:14;;;;;;;;;;;;;;;-140.72;100.00;52601.91;5089325;28;19927;-78
2023/07/22 05:00:42;;;;;;;;;;;;;;;-140.72;100.00;52603.94;5099240;28;20373;-78
2023/07/22 05:03:07;;;;;;;;;;;;;;;-140.72;100.00;52654.66;5071500;28;19924;-78
2023/07/22 05:05:32;;;;;;;;;;;;;;;-140.72;100.00;52624.22;5069670;28;20015;-78
2023/07/22 05:07:58;;;;;;;;;;;;;;;-140.72;100.00;52614.06;5073339;28;19931;-73
2023/07/22 05:10:23;;;;;;;;;;;;;;;-140.72;100.00;52610.00;5091863;28;20275;-73
2023/07/22 05:12:48;;;;;;;;;;;;;;;-140.72;100.00;52612.03;5077907;28;19920;-73
2023/07/22 05:15:14;;;;;;;;;;;;;;;-140.72;100.00;52607.97;5092307;28;20173;-72
2023/07/22 05:17:39;;;;;;;;;;;;;;;-140.72;100.00;52618.13;5075429;28;19935;-74
2023/07/22 05:20:14;;;;;;;;;;;;;;;-140.72;100.00;52622.19;5066387;28;19943;-73
2023/07/22 05:22:39;;;;;;;;;;;;;;;-140.72;100.00;52593.78;5088618;28;19920;-74
2023/07/22 05:25:05;;;;;;;;;;;;;;;-140.72;100.00;52626.25;5085831;28;19920;-73
2023/07/22 05:27:31;;;;;;;;;;;;;;;-140.72;100.00;52593.78;5064918;28;20018;-74
2023/07/22 05:29:56;;;;;;;;;;;;;;;-140.72;100.00;52626.25;5079512;28;20085;-73
2023/07/22 05:32:21;;;;;;;;;;;;;;;-140.72;100.00;52607.97;5085038;28;19931;-73
2023/07/22 05:34:46;;;;;;;;;;;;;;;-140.72;100.00;52587.69;5090359;28;20371;-74
2023/07/22 05:37:11;;;;;;;;;;;;;;;-140.72;100.00;52573.50;5085800;28;20018;-74
2023/07/22 05:39:37;;;;;;;;;;;;;;;-140.72;100.00;52593.78;5091268;28;19924;-78
2023/07/22 05:42:02;;;;;;;;;;;;;;;-140.72;100.00;52589.72;5075086;28;19927;-73
2023/07/22 05:44:27;;;;;;;;;;;;;;;-140.72;100.00;52581.59;5084355;28;19926;-74
2023/07/22 05:46:53;;;;;;;;;;;;;;;-140.72;100.00;52559.28;5102465;28;19928;-72
2023/07/22 05:49:18;;;;;;;;;;;;;;;-140.72;100.00;52571.47;5085922;28;19920;-72
2023/07/22 05:51:43;;;;;;;;;;;;;;;-140.72;100.00;52589.72;5083676;28;19973;-73
2023/07/22 05:54:08;;;;;;;;;;;;;;;-140.72;100.00;52567.41;5073378;28;20022;-72
2023/07/22 05:56:34;;;;;;;;;;;;;;;-140.72;100.00;52551.16;5084658;28;19916;-72
2023/07/22 05:58:59;;;;;;;;;;;;;;;-140.72;100.00;52585.66;5102615;28;19947;-72
2023/07/22 06:01:24;;;;;;;;;;;;;;;-140.72;100.00;52597.84;5067983;28;19969;-72
2023/07/22 06:03:49;;;;;;;;;;;;;;;-140.72;100.00;52569.44;5108460;27;19924;-73
2023/07/22 06:06:15;;;;;;;;;;;;;;;-140.72;100.00;52589.72;5085479;28;19920;-71
2023/07/22 06:08:40;;;;;;;;;;;;;;;-140.72;100.00;52610.00;5075625;28;19926;-70
2023/07/22 06:11:05;;;;;;;;;;;;;;;-140.72;100.00;52638.41;5099780;28;20532;-71
2023/07/22 06:13:30;;;;;;;;;;;;;;;-140.72;100.00;52587.69;5081064;28;20287;-72
2023/07/22 06:15:56;;;;;;;;;;;;;;;-140.72;100.00;52563.34;5094645;28;19947;-72
2023/07/22 06:18:21;;;;;;;;;;;;;;;-140.72;100.00;52565.38;5095317;28;19945;-71
2023/07/22 06:20:46;;;;;;;;;;;;;;;-140.72;100.00;52563.34;5093415;28;19931;-72
2023/07/22 06:23:11;;;;;;;;;;;;;;;-140.72;100.00;52557.25;5093452;28;19928;-72
2023/07/22 06:25:37;;;;;;;;;;;;;;;-140.72;100.00;52614.06;5088876;28;19920;-71
2023/07/22 06:28:02;;;;;;;;;;;;;;;-140.72;100.00;52585.66;5088759;28;19938;-72
2023/07/22 06:30:27;;;;;;;;;;;;;;;-140.72;100.00;52573.50;5093536;28;20036;-70
2023/07/22 06:32:53;;;;;;;;;;;;;;;-140.72;100.00;52549.13;5076586;28;19920;-71
2023/07/22 06:35:18;;;;;;;;;;;;;;;-140.72;100.00;52583.63;5087038;28;19927;-71
2023/07/22 06:37:43;;;;;;;;;;;;;;;-140.72;100.00;52577.53;5094323;28;20047;-71
2023/07/22 06:40:09;;;;;;;;;;;;;;;-140.72;100.00;52557.25;5089145;28;19928;-72
2023/07/22 06:42:34;;;;;;;;;;;;;;;-140.72;100.00;52551.16;5089263;28;20068;-71
2023/07/22 06:44:59;;;;;;;;;;;;;;;-140.72;100.00;52577.53;5096100;28;20037;-71
2023/07/22 06:47:24;;;;;;;;;;;;;;;-140.72;100.00;52553.19;5066496;28;19923;-72
2023/07/22 06:49:50;;;;;;;;;;;;;;;-140.72;100.00;52541.03;5086827;28;20388;-72
2023/07/22 06:52:16;;;;;;;;;;;;;;;-140.72;100.00;52502.47;5089049;28;19993;-72
2023/07/22 06:54:41;;;;;;;;;;;;;;;-140.72;100.00;52543.03;5085580;28;20324;-72
2023/07/22 06:57:06;;;;;;;;;;;;;;;-140.72;100.00;52498.41;5091752;28;19920;-72
2023/07/22 06:59:31;;;;;;;;;;;;;;;-140.72;100.00;52508.56;5084732;28;19916;-72
2023/07/22 07:01:57;;;;;;;;;;;;;;;-140.72;100.00;52504.50;5088050;28;19921;-72
2023/07/22 07:04:22;;;;;;;;;;;;;;;-140.72;100.00;52512.59;5086999;28;20408;-72
2023/07/22 07:06:47;;;;;;;;;;;;;;;-140.72;100.00;52530.88;5085340;28;20010;-72
2023/07/22 07:09:12;;;;;;;;;;;;;;;-140.72;100.00;52553.19;5096736;28;19973;-72
2023/07/22 07:11:38;;;;;;;;;;;;;;;-140.72;100.00;52553.19;5087458;28;19930;-72
2023/07/22 07:14:03;;;;;;;;;;;;;;;-140.72;100.00;52524.78;5090792;28;20007;-72
2023/07/22 07:16:31;;;;;;;;;;;;;;;-140.72;100.00;52518.69;5095438;28;19920;-72
2023/07/22 07:18:56;;;;;;;;;;;;;;;-140.72;100.00;52490.28;5102090;28;20038;-72
2023/07/22 07:21:22;;;;;;;;;;;;;;;-140.72;100.00;52494.34;5090501;28;20331;-72
2023/07/22 07:23:48;;;;;;;;;;;;;;;-140.72;100.00;52530.88;5090196;28;20338;-71
2023/07/22 07:26:13;;;;;;;;;;;;;;;-140.72;100.00;52498.41;5091073;28;19927;-72
2023/07/22 07:28:38;;;;;;;;;;;;;;;-140.72;100.00;52494.34;5067957;28;19920;-72
2023/07/22 07:31:04;;;;;;;;;;;;;;;-140.72;100.00;52524.78;5070630;28;19992;-72
2023/07/22 07:33:29;;;;;;;;;;;;;;;-140.72;100.00;52573.50;5071780;28;20007;-72
2023/07/22 07:35:54;;;;;;;;;;;;;;;-140.72;100.00;52502.47;5071083;28;19928;-72
2023/07/22 07:38:19;;;;;;;;;;;;;;;-140.72;100.00;52500.44;5080594;28;19920;-72
2023/07/22 07:40:45;;;;;;;;;;;;;;;-140.72;100.00;52504.50;5070968;28;19920;-72
2023/07/22 07:43:10;;;;;;;;;;;;;;;-140.72;100.00;52526.81;5072498;28;20300;-72
2023/07/22 07:45:39;;;;;;;;;;;;;;;-140.72;100.00;52510.59;5070089;28;20138;-73
2023/07/22 07:48:05;;;;;;;;;;;;;;;-140.72;100.00;52486.22;5081937;28;19935;-72
2023/07/22 07:50:30;;;;;;;;;;;;;;;-140.72;100.00;52508.56;5067212;28;19933;-73
2023/07/22 07:52:55;;;;;;;;;;;;;;;-140.72;100.00;52500.44;5070308;28;19932;-72
2023/07/22 07:55:20;;;;;;;;;;;;;;;-140.72;100.00;52500.44;5072047;28;20472;-72
2023/07/22 07:57:46;;;;;;;;;;;;;;;-140.72;100.00;52474.06;5076593;28;19924;-72
2023/07/22 08:00:11;;;;;;;;;;;;;;;-140.72;100.00;52459.84;5074021;28;20023;-73
2023/07/22 08:02:37;;;;;;;;;;;;;;;-140.72;100.00;52423.31;5067891;28;20247;-72
2023/07/22 08:05:02;;;;;;;;;;;;;;;-140.72;100.00;52451.72;5064852;28;20042;-73
2023/07/22 08:07:27;;;;;;;;;;;;;;;-140.72;100.00;52453.75;5071278;28;20039;-74
2023/07/22 08:09:53;;;;;;;;;;;;;;;-140.72;100.00;52490.28;5070432;28;19921;-72
2023/07/22 08:12:19;;;;;;;;;;;;;;;-140.72;100.00;52453.75;5062081;28;20299;-75
2023/07/22 08:14:44;;;;;;;;;;;;;;;-140.72;100.00;52451.72;5069467;28;19921;-69
2023/07/22 08:17:10;;;;;;;;;;;;;;;-140.72;100.00;52472.03;5072029;28;19920;-71
2023/07/22 08:19:35;;;;;;;;;;;;;;;-140.72;100.00;52451.72;5073776;28;20357;-71
2023/07/22 08:22:00;;;;;;;;;;;;;;;-140.72;100.00;52457.81;5069564;28;19921;-72
2023/07/22 08:24:25;;;;;;;;;;;;;;;-140.72;100.00;52433.47;5066747;28;19924;-72
2023/07/22 08:26:51;;;;;;;;;;;;;;;-140.72;100.00;52405.06;5077097;28;19981;-72
2023/07/22 08:29:16;;;;;;;;;;;;;;;-140.72;100.00;52459.84;5087961;28;19926;-75
2023/07/22 08:31:41;;;;;;;;;;;;;;;-140.72;100.00;52427.38;5092928;28;20333;-73
2023/07/22 08:34:06;;;;;;;;;;;;;;;-140.72;100.00;52435.50;5085757;28;20351;-72
2023/07/22 08:36:32;;;;;;;;;;;;;;;-140.72;100.00;52459.84;5086826;28;19934;-72
2023/07/22 08:38:57;;;;;;;;;;;;;;;-140.72;100.00;52463.91;5093348;28;19932;-75
2023/07/22 08:41:25;;;;;;;;;;;;;;;-140.72;100.00;52447.69;5091319;28;20015;-73
2023/07/22 08:43:50;;;;;;;;;;;;;;;-140.72;100.00;52405.06;5093573;28;19920;-72
2023/07/22 08:46:17;;;;;;;;;;;;;;;-140.72;100.00;52415.22;5092288;28;20389;-72
2023/07/22 08:48:46;;;;;;;;;;;;;;;-140.72;90.24;52390.84;5091702;28;19931;-72
2023/07/22 08:51:16;;;;;;;;;;;;;;;-140.72;45.58;52415.22;5065007;28;19920;-72
2023/07/22 08:53:42;;;;;;;;;;;;;;;-140.72;24.88;52459.84;5093685;28;19965;-72
2023/07/22 08:56:42;;;;;;;;;;;;;;;-140.72;19.78;52439.56;5094010;28;20391;-74
2023/07/22 08:59:08;;;;;;;;;;;;;;;-140.72;21.70;52455.78;5074724;28;19928;-71
2023/07/22 09:01:52;;;;;;;;;;;;;;;-140.72;19.63;52443.63;5100465;28;19916;-71
2023/07/22 09:04:19;;;;;;;;;;;;;;;-140.72;16.10;52390.84;5094080;28;19961;-71
2023/07/22 09:06:45;;;;;;;;;;;;;;;-140.72;12.50;52394.91;5093824;28;19973;-71
2023/07/22 09:09:11;;;;;;;;;;;;;;;-140.72;0.00;52427.38;5073759;28;19920;-73
2023/07/22 09:11:37;;;;;;;;;;;;;;;-140.72;0.00;52372.59;5077910;28;19923;-71
2023/07/22 09:14:04;;;;;;;;;;;;;;;-140.72;0.00;52421.28;5090059;28;19931;-71
2023/07/22 09:16:30;;;;;;;;;;;;;;;-140.72;0.00;52419.28;5091837;28;19922;-72
2023/07/22 09:18:57;;;;;;;;;;;;;;;-140.72;0.00;52398.97;5091480;28;20062;-70
2023/07/22 09:21:22;;;;;;;;;;;;;;;-140.72;0.00;52382.75;5087735;28;19966;-75
2023/07/22 09:23:48;;;;;;;;;;;;;;;-140.72;0.00;52390.84;5068892;28;19924;-71
2023/07/22 09:26:14;;;;;;;;;;;;;;;-140.72;0.00;52370.56;5091740;28;19916;-70
2023/07/22 09:28:52;;;;;;;;;;;;;;;-140.72;0.00;52372.59;5089463;28;19924;-73
2023/07/22 09:31:18;;;;;;;;;;;;;;;-140.72;0.00;52378.69;5090293;28;19920;-71
2023/07/22 09:33:45;;;;;;;;;;;;;;;-140.72;0.00;52411.16;5089245;28;20200;-73
2023/07/22 09:36:11;;;;;;;;;;;;;;;-140.72;0.00;52439.56;5065226;28;20326;-69
2023/07/22 09:38:36;;;;;;;;;;;;;;;-140.72;0.00;52461.88;5089893;28;19916;-69
2023/07/22 09:41:03;;;;;;;;;;;;;;;-140.72;0.00;52484.19;5078716;28;20329;-70
2023/07/22 09:43:37;;;;;;;;;;;;;;;-140.72;0.00;52427.38;5088752;28;19915;-70
2023/07/22 09:46:08;;;;;;;;;;;;;;;-140.72;0.00;52465.94;5088983;28;19920;-70
2023/07/22 09:48:44;;;;;;;;;;;;;;;-140.72;0.00;52439.56;5090208;28;19927;-70
2023/07/22 09:51:14;;;;;;;;;;;;;;;-140.72;0.00;52463.91;5092311;28;19924;-70
2023/07/22 09:53:43;;;;;;;;;;;;;;;-140.72;0.00;52453.75;5086707;28;19923;-70
2023/07/22 09:56:09;;;;;;;;;;;;;;;-140.72;0.00;52447.69;5091542;28;20006;-70
2023/07/22 09:58:34;;;;;;;;;;;;;;;-140.72;0.00;52482.16;5091084;28;20007;-70
2023/07/22 10:01:00;;;;;;;;;;;;;;;-140.72;0.00;52482.16;5088709;28;20059;-70
2023/07/22 10:03:28;;;;;;;;;;;;;;;-140.72;0.00;52459.84;5088846;28;19916;-70
2023/07/22 10:05:54;;;;;;;;;;;;;;;-140.72;0.00;52433.47;5091197;28;19920;-70
2023/07/22 10:08:21;;;;;;;;;;;;;;;-140.72;0.00;52451.72;5102513;28;20231;-71
2023/07/22 10:10:47;;;;;;;;;;;;;;;-140.72;0.00;52455.78;5092105;28;20019;-70
2023/07/22 10:13:12;;;;;;;;;;;;;;;-140.72;0.00;52476.09;5096950;28;20289;-70
2023/07/22 10:15:38;;;;;;;;;;;;;;;-140.72;0.00;52484.19;5097301;28;19923;-70
2023/07/22 10:18:04;;;;;;;;;;;;;;;-140.72;0.00;52494.34;5086783;28;19922;-70
2023/07/22 10:20:30;;;;;;;;;;;;;;;-140.72;0.00;52496.38;5091810;28;20013;-70
2023/07/22 10:22:55;;;;;;;;;;;;;;;-140.72;0.00;52520.72;5086655;28;20535;-70
2023/07/22 10:25:21;;;;;;;;;;;;;;;-140.72;0.00;52524.78;5094861;28;20247;-70
2023/07/22 10:27:48;;;;;;;;;;;;;;;-140.72;0.00;52492.31;5098551;28;19924;-70
2023/07/22 10:30:14;;;;;;;;;;;;;;;-140.72;0.00;52516.66;5079419;28;19939;-70
2023/07/22 10:32:49;;;;;;;;;;;;;;;-140.72;0.00;52541.03;5066392;28;20463;-70
2023/07/22 10:35:23;;;;;;;;;;;;;;;-140.72;1.05;52512.59;5090541;28;20019;-70
2023/07/22 10:37:49;;;;;;;;;;;;;;;-140.72;11.53;52490.28;5094985;28;20019;-70
2023/07/22 10:40:20;;;;;;;;;;;;;;;-140.72;10.07;52506.53;5088651;28;19931;-70
2023/07/22 10:42:54;;;;;;;;;;;;;;;-140.72;0.00;52476.09;5093098;28;19927;-70
2023/07/22 10:45:27;;;;;;;;;;;;;;;-140.72;0.00;52459.84;5105358;28;19965;-70
2023/07/22 10:48:02;;;;;;;;;;;;;;;-140.72;0.00;52423.31;5097379;28;20003;-70
2023/07/22 10:50:40;;;;;;;;;;;;;;;-140.72;0.00;52409.13;5102082;28;19916;-70
2023/07/22 10:53:06;;;;;;;;;;;;;;;-140.72;0.00;52358.41;5088998;28;19920;-70
2023/07/22 10:55:31;;;;;;;;;;;;;;;-140.72;0.00;52342.16;5092258;28;19927;-70
2023/07/22 10:58:02;;;;;;;;;;;;;;;-140.72;0.00;52350.28;5089562;28;19920;-71
2023/07/22 11:00:31;;;;;;;;;;;;;;;-140.72;0.00;52368.53;5091224;28;20395;-70
2023/07/22 11:03:10;;;;;;;;;;;;;;;-140.72;0.00;52401.00;5089626;28;20275;-70
2023/07/22 11:05:52;;;;;;;;;;;;;;;-140.72;0.00;52398.97;5103600;28;19916;-70
2023/07/22 11:08:35;;;;;;;;;;;;;;;-140.72;0.00;52382.75;5084291;28;19920;-70
2023/07/22 11:11:00;;;;;;;;;;;;;;;-140.72;0.00;52403.03;5091370;28;19928;-70
2023/07/22 11:13:29;;;;;;;;;;;;;;;-140.72;0.00;52435.50;5081906;28;19920;-70
2023/07/22 11:15:58;;;;;;;;;;;;;;;-140.72;0.00;52415.22;5087639;28;19917;-70
2023/07/22 11:18:35;;;;;;;;;;;;;;;-140.72;0.00;52413.19;5099283;28;19920;-70
2023/07/22 11:21:00;;;;;;;;;;;;;;;-140.72;0.00;52421.28;5089856;28;19924;-70
2023/07/22 11:23:25;;;;;;;;;;;;;;;-140.72;0.00;52398.97;5091314;28;19935;-70
2023/07/22 11:25:51;;;;;;;;;;;;;;;-140.72;0.00;52403.03;5088588;28;20005;-70
2023/07/22 11:28:16;;;;;;;;;;;;;;;-140.72;0.00;52405.06;5090203;28;19974;-70
2023/07/22 11:30:41;;;;;;;;;;;;;;;-140.72;0.00;52457.81;5084781;28;20301;-70
2023/07/22 11:33:06;;;;;;;;;;;;;;;-140.72;0.00;52461.88;5091300;28;19924;-70
2023/07/22 11:35:32;;;;;;;;;;;;;;;-140.72;0.00;52461.88;5089437;28;20018;-70
2023/07/22 11:38:01;;;;;;;;;;;;;;;-140.72;0.00;52447.69;5095089;28;19927;-69
2023/07/22 11:40:32;;;;;;;;;;;;;;;-140.72;0.00;52451.72;5086737;28;19939;-70
2023/07/22 11:42:57;;;;;;;;;;;;;;;-140.72;0.00;52423.31;5106052;28;19920;-69
2023/07/22 11:45:23;;;;;;;;;;;;;;;-140.72;0.00;52417.25;5088522;28;19927;-69
2023/07/22 11:47:48;;;;;;;;;;;;;;;-140.72;0.00;52411.16;5089155;28;19942;-69
2023/07/22 11:50:13;;;;;;;;;;;;;;;-140.72;0.00;52459.84;5092087;28;19962;-70
2023/07/22 11:52:39;;;;;;;;;;;;;;;-140.72;0.00;52451.72;5088687;28;19920;-70
2023/07/22 11:55:04;;;;;;;;;;;;;;;-140.72;0.00;52439.56;5093883;28;19916;-69
2023/07/22 11:57:29;;;;;;;;;;;;;;;-140.72;0.00;52488.25;5094364;28;20389;-69
2023/07/22 11:59:56;;;;;;;;;;;;;;;-140.72;0.00;52502.47;5093363;28;19942;-69
2023/07/22 12:02:22;;;;;;;;;;;;;;;-140.72;0.00;52488.25;5090216;28;19916;-69
2023/07/22 12:05:01;;;;;;;;;;;;;;;-140.72;0.00;52516.66;5093936;28;19965;-70
2023/07/22 12:07:27;;;;;;;;;;;;;;;-140.72;0.00;52543.03;5093488;28;20403;-70
2023/07/22 12:09:53;;;;;;;;;;;;;;;-140.72;0.00;52536.97;5094025;28;19920;-70
2023/07/22 12:12:18;;;;;;;;;;;;;;;-140.72;0.00;52516.66;5092442;28;19916;-69
2023/07/22 12:14:43;;;;;;;;;;;;;;;-140.72;0.00;52504.50;5096333;28;20229;-70
2023/07/22 12:17:09;;;;;;;;;;;;;;;-140.72;0.00;52498.41;5098977;28;20364;-70
2023/07/22 12:19:34;;;;;;;;;;;;;;;-140.72;0.00;52482.16;5072211;28;20322;-70